createdAt,value
2023-02-03T00:02:12.660Z,0.82
2023-02-03T00:04:40.644Z,0.82
2023-02-03T00:07:10.282Z,0.82
2023-02-03T00:09:38.367Z,0.80
2023-02-03T00:12:06.897Z,0.77
2023-02-03T00:14:35.121Z,0.75
2023-02-03T00:17:03.209Z,0.73
2023-02-03T00:19:31.151Z,0.70
2023-02-03T00:21:59.650Z,0.69
2023-02-03T00:24:27.746Z,0.67
2023-02-03T00:26:56.045Z,0.67
2023-02-03T00:29:26.178Z,0.70
2023-02-03T00:31:54.645Z,0.73
2023-02-03T00:34:22.842Z,0.78
2023-02-03T00:36:50.846Z,0.82
2023-02-03T00:39:18.972Z,0.86
2023-02-03T00:41:48.024Z,0.89
2023-02-03T00:44:16.020Z,0.90
2023-02-03T00:46:45.232Z,0.92
2023-02-03T00:49:13.348Z,0.95
2023-02-03T00:51:41.537Z,0.99
2023-02-03T00:54:10.592Z,1.03
2023-02-03T00:56:41.528Z,1.07
2023-02-03T00:59:09.573Z,1.12
2023-02-03T01:01:37.719Z,1.16
2023-02-03T01:04:05.799Z,1.17
2023-02-03T01:06:34.625Z,1.17
2023-02-03T01:09:03.122Z,1.13
2023-02-03T01:11:31.252Z,1.09
2023-02-03T01:14:02.285Z,1.07
2023-02-03T01:16:31.118Z,1.05
2023-02-03T01:18:59.232Z,1.04
2023-02-03T01:21:30.220Z,1.03
2023-02-03T01:23:58.403Z,1.04
2023-02-03T01:26:27.579Z,1.04
2023-02-03T01:28:56.897Z,1.04
2023-02-03T01:31:35.765Z,1.05
2023-02-03T01:34:03.956Z,1.06
2023-02-03T01:36:33.770Z,1.08
2023-02-03T01:39:04.471Z,1.09
2023-02-03T01:41:35.300Z,1.09
2023-02-03T01:44:38.330Z,1.10
2023-02-03T01:47:15.155Z,1.13
2023-02-03T01:49:47.387Z,1.16
2023-02-03T01:52:16.648Z,1.20
2023-02-03T01:54:45.808Z,1.24
2023-02-03T01:57:48.584Z,1.27
2023-02-03T02:00:16.667Z,1.29
2023-02-03T02:02:46.163Z,1.30
2023-02-03T02:05:34.400Z,1.31
2023-02-03T02:08:03.095Z,1.31
2023-02-03T02:10:31.497Z,1.29
2023-02-03T02:13:01.985Z,1.28
2023-02-03T02:15:41.016Z,1.27
2023-02-03T02:18:44.523Z,1.26
2023-02-03T02:21:42.674Z,1.27
2023-02-03T02:24:29.514Z,1.27
2023-02-03T02:27:36.923Z,1.26
2023-02-03T02:30:35.947Z,1.20
2023-02-03T02:33:12.401Z,1.14
2023-02-03T02:36:02.424Z,1.10
2023-02-03T02:38:41.112Z,1.07
2023-02-03T02:41:19.297Z,1.05
2023-02-03T02:43:49.473Z,1.03
2023-02-03T02:46:25.712Z,1.00
2023-02-03T02:49:03.838Z,0.97
2023-02-03T02:51:32.633Z,0.94
2023-02-03T02:54:04.162Z,0.95
2023-02-03T02:56:33.300Z,0.97
2023-02-03T02:59:02.127Z,0.96
2023-02-03T03:01:30.312Z,0.94
2023-02-03T03:03:59.085Z,0.93
2023-02-03T03:06:36.984Z,0.92
2023-02-03T03:09:14.692Z,0.91
2023-02-03T03:11:49.817Z,0.90
2023-02-03T03:14:19.642Z,0.89
2023-02-03T03:16:53.474Z,0.87
2023-02-03T03:19:24.523Z,0.86
2023-02-03T03:21:58.104Z,0.85
2023-02-03T03:24:34.308Z,0.84
2023-02-03T03:27:07.089Z,0.83
2023-02-03T03:29:43.896Z,0.80
2023-02-03T03:32:12.241Z,0.77
2023-02-03T03:34:40.461Z,0.72
2023-02-03T03:37:27.806Z,0.70
2023-02-03T03:39:59.980Z,0.70
2023-02-03T03:42:34.004Z,0.70
2023-02-03T03:45:07.255Z,0.71
2023-02-03T03:47:52.896Z,0.71
2023-02-03T03:50:29.378Z,0.72
2023-02-03T03:53:01.529Z,0.73
2023-02-03T03:55:32.903Z,0.76
2023-02-03T03:58:26.782Z,0.79
2023-02-03T04:00:59.180Z,0.83
2023-02-03T04:03:51.970Z,0.90
2023-02-03T04:06:22.460Z,0.97
2023-02-03T04:08:52.987Z,0.98
2023-02-03T04:11:42.619Z,0.99
2023-02-03T04:14:14.206Z,0.99
2023-02-03T04:16:44.006Z,1.01
2023-02-03T04:19:14.906Z,1.03
2023-02-03T04:21:47.981Z,1.04
2023-02-03T04:24:18.131Z,1.04
2023-02-03T04:26:48.934Z,1.03
2023-02-03T04:29:20.037Z,1.01
2023-02-03T04:31:50.494Z,0.98
2023-02-03T04:34:21.506Z,0.96
2023-02-03T04:36:51.654Z,0.95
2023-02-03T04:39:22.367Z,0.95
2023-02-03T04:41:52.286Z,0.95
2023-02-03T04:44:22.066Z,0.96
2023-02-03T04:54:42.301Z,0.97
2023-02-03T04:57:09.086Z,0.97
2023-02-03T04:59:35.726Z,0.97
2023-02-03T05:02:04.386Z,0.97
2023-02-03T05:04:31.519Z,0.97
2023-02-03T05:06:58.365Z,0.99
2023-02-03T05:09:25.307Z,1.03
2023-02-03T05:11:52.515Z,1.04
2023-02-03T05:14:19.494Z,1.08
2023-02-03T05:16:46.489Z,1.09
2023-02-03T05:19:13.709Z,1.11
2023-02-03T05:21:40.688Z,1.12
2023-02-03T05:24:08.237Z,1.14
2023-02-03T05:26:35.150Z,1.17
2023-02-03T05:29:02.439Z,1.20
2023-02-03T05:31:29.425Z,1.22
2023-02-03T05:33:56.511Z,1.23
2023-02-03T05:36:23.452Z,1.26
2023-02-03T05:38:50.432Z,1.28
2023-02-03T05:41:35.823Z,1.30
2023-02-03T05:44:02.831Z,1.32
2023-02-03T05:46:29.782Z,1.34
2023-02-03T05:48:56.431Z,1.36
2023-02-03T05:51:24.579Z,1.40
2023-02-03T05:53:59.216Z,1.46
2023-02-03T05:56:26.297Z,1.51
2023-02-03T05:58:53.574Z,1.58
2023-02-03T06:01:20.739Z,1.64
2023-02-03T06:03:49.871Z,1.70
2023-02-03T06:06:17.065Z,1.77
2023-02-03T06:08:44.158Z,1.84
2023-02-03T06:11:11.100Z,1.88
2023-02-03T06:13:37.945Z,1.93
2023-02-03T06:16:04.890Z,2.01
2023-02-03T06:18:31.774Z,2.09
2023-02-03T06:28:34.694Z,2.23
2023-02-03T06:31:02.857Z,2.25
2023-02-03T06:33:31.639Z,2.30
2023-02-03T06:36:00.231Z,2.33
2023-02-03T06:38:28.407Z,2.39
2023-02-03T06:40:56.491Z,2.45
2023-02-03T06:43:24.880Z,2.48
2023-02-03T06:45:53.023Z,2.49
2023-02-03T06:48:21.094Z,2.50
2023-02-03T06:50:49.206Z,2.49
2023-02-03T06:53:17.651Z,2.49
2023-02-03T06:55:48.140Z,2.48
2023-02-03T06:58:16.285Z,2.44
2023-02-03T07:00:44.420Z,2.39
2023-02-03T07:03:12.943Z,2.33
2023-02-03T07:05:41.107Z,2.30
2023-02-03T07:08:09.265Z,2.30
2023-02-03T07:10:38.790Z,2.33
2023-02-03T07:13:07.287Z,2.36
2023-02-03T07:15:37.686Z,2.37
2023-02-03T07:18:05.906Z,2.36
2023-02-03T07:20:35.605Z,2.39
2023-02-03T07:23:04.756Z,2.40
2023-02-03T07:25:32.955Z,2.39
2023-02-03T07:28:01.561Z,2.39
2023-02-03T07:30:30.366Z,2.39
2023-02-03T07:32:59.066Z,2.40
2023-02-03T07:35:27.520Z,2.40
2023-02-03T07:37:55.766Z,2.44
2023-02-03T07:48:03.399Z,2.72
2023-02-03T07:50:33.618Z,2.78
2023-02-03T07:53:01.711Z,2.86
2023-02-03T07:55:31.720Z,2.95
2023-02-03T07:58:02.910Z,3.04
2023-02-03T08:00:31.982Z,3.10
2023-02-03T08:03:00.224Z,3.16
2023-02-03T08:05:29.636Z,3.23
2023-02-03T08:07:57.951Z,3.25
2023-02-03T08:10:28.011Z,3.25
2023-02-03T08:12:56.669Z,3.24
2023-02-03T08:15:24.912Z,3.22
2023-02-03T08:17:53.736Z,3.21
2023-02-03T08:20:22.267Z,3.24
2023-02-03T08:22:50.387Z,3.30
